This is the latest recevied weather packets stored in our database for station/object WA1RYQ. If no packets are shown the sender has not sent any weather packets the latest 10 day(s).
| Time | Temp. | Humidity | Pressure | Rain* | Wind** | Luminosity | Snow |
|---|---|---|---|---|---|---|---|
| 1777481162 | 26.67° C | 72% | 1017.2 hPa | 0 mm | - | 891 W/m² | - |
| 1777480826 | 27.22° C | 72% | 1017.3 hPa | 0 mm | - | 888 W/m² | - |
| 1777480267 | 27.22° C | 70% | 1017.2 hPa | 0 mm | - | 881 W/m² | - |
| 1777479640 | 27.78° C | 71% | 1017.4 hPa | 0 mm | - | 837 W/m² | - |
| 1777479372 | 27.78° C | 70% | 1017.5 hPa | 0 mm | - | 872 W/m² | - |
| 1777478444 | 26.67° C | 71% | 1017.7 hPa | 0 mm | - | 846 W/m² | - |
| 1777477820 | 27.22° C | 70% | 1018.1 hPa | 0 mm | - | 828 W/m² | - |
| 1777476641 | 27.22° C | 68% | 1018 hPa | 0 mm | - | 793 W/m² | - |
| 1777476002 | 27.22° C | 69% | 1018.1 hPa | 0 mm | - | 766 W/m² | - |
| 1777472453 | 25.56° C | 72% | 1017.7 hPa | 0 mm | - | 621 W/m² | - |
| 1777470043 | 25.56° C | 73% | 1017.8 hPa | 0 mm | - | 485 W/m² | - |
| 1777469416 | 25.56° C | 74% | 1017.8 hPa | 0 mm | - | 448 W/m² | - |
| 1777468243 | 25° C | 76% | 1017.5 hPa | 0 mm | - | 394 W/m² | - |
| 1777467620 | 24.44° C | 78% | 1017.4 hPa | 0 mm | - | 360 W/m² | - |
| 1777465806 | 22.78° C | 84% | 1017.3 hPa | 0 mm | - | 107 W/m² | - |
| 1777465522 | 22.22° C | 85% | 1017.3 hPa | 0 mm | - | 139 W/m² | - |
| 1777464342 | 21.11° C | 88% | 1017.3 hPa | 0 mm | - | 148 W/m² | - |
| 1777463430 | 20.56° C | 88% | 1017.1 hPa | 0 mm | - | 35 W/m² | - |
| 1777462803 | 20.56° C | 87% | 1017 hPa | 0 mm | - | 30 W/m² | - |
| 1777461956 | 20.56° C | 87% | 1016.6 hPa | 0 mm | - | 19 W/m² | - |
| 1777461616 | 20.56° C | 87% | 1016.6 hPa | 0 mm | - | 16 W/m² | - |
| 1777461051 | 20.56° C | 87% | 1016.3 hPa | 0 mm | - | 11 W/m² | - |
| 1777460710 | 20.56° C | 87% | 1016.3 hPa | 0 mm | - | 9 W/m² | - |
| 1777460435 | 20.56° C | 86% | 1016.3 hPa | 0 mm | - | 5 W/m² | - |
| 1777458058 | 21.11° C | 85% | 1015.9 hPa | 0 mm | - | 0 W/m² | - |
* Rain latest hour (hover to see other rain measurements)
** Current wind speed in m/s (hover to see current wind gust speed)